Overseas Houston — WWAA — position and weather

sailwx.info

Track history (hours):
 
Tides and Currents Weather Stations Pressure Air Temp Water Temp Dewpoint Dewpoint Depression Visibility Wind Speed Wind Dir Waves Ship Positions

Overseas Houston

Owner: ASC Leasing I, Inc., Kennett Square, PA. More information available from US FCC via Universal Licensing System and Coast Guard Vessel Documentation Center.

Last reported at 2018-Apr-21 21:50 UTC. Time now 2018-Apr-25 05:11 UTC.
Position N 25°16' W 080°05'.

Type: Tanker. MMSI: 367109000.

Date/timePositionNaut miles runAvg speedWind from/ knotsBaromVisibWave heightAir tempDewpointWater temp
2018-Apr-21 21:50N 25°16' W 080°05'411.9
2018-Apr-21 21:30N 25°19' W 080°03'611.4
2018-Apr-21 21:00N 25°25' W 080°02'611.2
2018-Apr-21 20:30N 25°30' W 080°02'510.9
2018-Apr-21 20:00N 25°35' W 080°00'611.0
2018-Apr-21 19:30N 25°41' W 079°60'611.4
2018-Apr-21 19:00N 25°47' W 080°00'713.1
2018-Apr-21 18:30N 25°53' W 080°00'713.3
2018-Apr-21 18:00N 25°60' W 080°00'713.6
2018-Apr-21 17:30N 26°07' W 080°00'713.4
2018-Apr-21 17:00N 26°13' W 080°00'713.1
2018-Apr-21 16:30N 26°20' W 080°00'713.1
2018-Apr-21 15:59N 26°27' W 080°00'612.9
2018-Apr-21 15:29N 26°33' W 080°00'1112.9
2018-Apr-21 14:36N 26°44' W 079°56'312.4
2018-Apr-21 14:20N 26°47' W 079°55'411.9
2018-Apr-21 14:00N 26°51' W 079°55'611.2
2018-Apr-21 13:30N 26°57' W 079°55'510.7
2018-Apr-21 13:00N 27°02' W 079°55'  
2018-Apr-19 05:52N 28°19' W 080°29'0 0.0
2018-Apr-19 05:22N 28°19' W 080°29'0 0.0
2018-Apr-19 01:06N 28°19' W 080°29'0 0.0
2018-Apr-19 00:54N 28°19' W 080°29'0 0.0
2018-Apr-19 00:21N 28°19' W 080°29'118 2.6
2018-Apr-17 02:25N 26°27' W 079°47'1017.5
2018-Apr-17 01:51N 26°17' W 079°48'717.5
2018-Apr-17 01:28N 26°11' W 079°49'817.4
2018-Apr-17 01:00N 26°03' W 079°51'917.4
2018-Apr-17 00:30N 25°54' W 079°52'817.4
2018-Apr-17 00:00N 25°45' W 079°53'917.6
2018-Apr-16 23:30N 25°37' W 079°55'917.5
2018-Apr-16 23:00N 25°28' W 079°57'1117.0
2018-Apr-16 22:23N 25°18' W 079°60'  
2018-Apr-14 08:37N 29°18' W 093°39'210.8
2018-Apr-14 08:27N 29°20' W 093°39'510.5
2018-Apr-14 08:00N 29°24' W 093°40'3 6.3
2018-Apr-14 07:30N 29°28' W 093°40'510.2
2018-Apr-14 06:59N 29°32' W 093°43'511.4
2018-Apr-14 06:30N 29°36' W 093°48'611.0
2018-Apr-14 06:00N 29°41' W 093°50'5 9.6
2018-Apr-14 05:30N 29°45' W 093°53'4 8.7
2018-Apr-14 05:00N 29°48' W 093°57'4 8.4
2018-Apr-14 04:30N 29°52' W 093°56'4 8.7
2018-Apr-14 04:00N 29°55' W 093°53'4 7.4
2018-Apr-14 03:30N 29°59' W 093°52'4 7.5
2018-Apr-14 03:00N 29°59' W 093°56'2 4.8
2018-Apr-14 02:30N 30°01' W 093°58'2 4.6
2018-Apr-14 02:00N 30°01' W 094°01'1 3.0
2018-Apr-14 01:30N 30°02' W 094°02'0 0.0
2018-Apr-14 01:00N 30°02' W 094°02'0 0.0
2018-Apr-14 00:28N 30°02' W 094°02'0 0.0
2018-Apr-13 23:55N 30°02' W 094°02'0 0.0
2018-Apr-13 23:28N 30°02' W 094°02'0 0.0
2018-Apr-13 22:58N 30°02' W 094°02'0 0.0
2018-Apr-13 22:28N 30°02' W 094°02'0 0.0
2018-Apr-13 21:58N 30°02' W 094°02'0 0.0
2018-Apr-13 21:28N 30°02' W 094°02'0 0.0
2018-Apr-13 20:58N 30°02' W 094°02'0 0.0
2018-Apr-13 20:28N 30°02' W 094°02'0 0.0
2018-Apr-13 19:58N 30°02' W 094°02'0 0.0
2018-Apr-13 19:28N 30°02' W 094°02'0 0.0
2018-Apr-13 18:58N 30°02' W 094°02'0 0.0
2018-Apr-13 18:28N 30°02' W 094°02'0 0.0
2018-Apr-13 17:58N 30°02' W 094°02'0 0.0
2018-Apr-13 17:28N 30°02' W 094°02'0 0.0
2018-Apr-13 16:55N 30°02' W 094°02'0 0.0
2018-Apr-13 16:28N 30°02' W 094°02'0 0.0
2018-Apr-13 15:58N 30°02' W 094°02'0 0.0
2018-Apr-13 15:28N 30°02' W 094°02'0 0.0
2018-Apr-13 14:58N 30°02' W 094°02'0 0.0
2018-Apr-13 14:28N 30°02' W 094°02'0 0.0
2018-Apr-13 13:58N 30°02' W 094°02'0 0.0
2018-Apr-13 13:28N 30°02' W 094°02'0 0.0
2018-Apr-13 12:58N 30°02' W 094°02'0 0.0
2018-Apr-13 12:28N 30°02' W 094°02'0 0.0
2018-Apr-13 11:58N 30°02' W 094°02'0 0.0
2018-Apr-13 11:28N 30°02' W 094°02'0 0.0
2018-Apr-13 10:58N 30°02' W 094°02'0 0.0
2018-Apr-13 10:28N 30°02' W 094°02'0 0.0
2018-Apr-13 09:58N 30°02' W 094°02'0 0.0
2018-Apr-13 09:25N 30°02' W 094°02'0 0.0
2018-Apr-13 08:58N 30°02' W 094°02'0 0.0
2018-Apr-13 08:28N 30°02' W 094°02'0 0.0
2018-Apr-13 07:55N 30°02' W 094°02'0 0.0
2018-Apr-13 07:30N 30°02' W 094°02'0 0.0
2018-Apr-13 07:00N 30°02' W 094°02'0 0.0
2018-Apr-13 06:30N 30°02' W 094°02'0 0.0
2018-Apr-13 06:00N 30°02' W 094°02'0 0.0
2018-Apr-13 05:30N 30°02' W 094°02'0 0.0
2018-Apr-13 05:00N 30°02' W 094°02'0 0.0
2018-Apr-13 04:30N 30°02' W 094°02'0 0.0
2018-Apr-13 04:00N 30°02' W 094°02'0 0.0
2018-Apr-13 03:30N 30°02' W 094°02'0 0.0
2018-Apr-13 03:00N 30°02' W 094°02'0 0.0
2018-Apr-13 02:30N 30°02' W 094°02'0 0.0
2018-Apr-13 02:00N 30°02' W 094°02'0 0.0
2018-Apr-13 01:30N 30°02' W 094°02'0 0.0
2018-Apr-13 01:00N 30°02' W 094°02'0 0.0
2018-Apr-13 00:30N 30°02' W 094°02'0 0.0
2018-Apr-13 00:00N 30°02' W 094°02'0 0.0
2018-Apr-12 23:27N 30°02' W 094°02'0 0.0
2018-Apr-12 23:00N 30°02' W 094°02'0 0.0
2018-Apr-12 22:30N 30°02' W 094°02'0 0.0
2018-Apr-12 21:57N 30°02' W 094°02'0 0.0
2018-Apr-12 21:30N 30°02' W 094°02'0 0.0
2018-Apr-12 21:00N 30°02' W 094°02'0 0.0
2018-Apr-12 20:30N 30°02' W 094°02'0 0.0
2018-Apr-12 20:00N 30°02' W 094°02'0 0.0
2018-Apr-12 19:30N 30°02' W 094°02'0 0.0
2018-Apr-12 19:00N 30°02' W 094°02'0 0.0
2018-Apr-12 18:30N 30°02' W 094°02'0 0.0
2018-Apr-12 18:00N 30°02' W 094°02'0 0.0
2018-Apr-12 17:30N 30°02' W 094°02'0 0.0
2018-Apr-12 17:00N 30°02' W 094°02'0 0.0
2018-Apr-12 16:30N 30°02' W 094°02'0 0.0
2018-Apr-12 16:00N 30°02' W 094°02'0 0.0
2018-Apr-12 15:30N 30°02' W 094°02'0 0.0
2018-Apr-12 15:00N 30°02' W 094°02'0 0.0
2018-Apr-12 14:30N 30°02' W 094°02'0 0.0
2018-Apr-12 14:00N 30°02' W 094°02'0 0.0
2018-Apr-12 13:30N 30°02' W 094°02'0 0.0
2018-Apr-12 13:00N 30°02' W 094°02'0 0.0
2018-Apr-12 12:30N 30°02' W 094°02'0 0.0
2018-Apr-12 11:57N 30°02' W 094°02'0 0.0
2018-Apr-12 11:30N 30°02' W 094°02'0 0.0
2018-Apr-12 11:00N 30°02' W 094°02'0 0.0
2018-Apr-12 10:30N 30°02' W 094°02'0 0.0
2018-Apr-12 10:00N 30°02' W 094°02'0 0.0
2018-Apr-12 09:30N 30°02' W 094°02'0 0.0
2018-Apr-12 09:00N 30°02' W 094°02'0 0.0
2018-Apr-12 08:30N 30°02' W 094°02'0 0.0
2018-Apr-12 08:00N 30°02' W 094°02'0 0.0
2018-Apr-12 07:30N 30°02' W 094°02'0 0.0
2018-Apr-12 07:00N 30°02' W 094°02'0 0.0
2018-Apr-12 06:30N 30°02' W 094°02'0 0.0
2018-Apr-12 06:00N 30°02' W 094°02'0 0.0
2018-Apr-12 05:30N 30°02' W 094°02'0 0.0
2018-Apr-12 04:57N 30°02' W 094°02'0 0.0
2018-Apr-12 04:27N 30°02' W 094°02'0 0.7
2018-Apr-12 04:00N 30°02' W 094°02'2 3.6
2018-Apr-12 03:30N 30°01' W 094°00'3 5.2
2018-Apr-12 03:00N 30°01' W 093°57'4 7.0
2018-Apr-12 02:30N 29°59' W 093°54'3 5.8
2018-Apr-12 02:00N 29°57' W 093°52'4 7.7
2018-Apr-12 01:30N 29°54' W 093°54'4 7.2
2018-Apr-12 01:00N 29°51' W 093°57'4 7.6
2018-Apr-12 00:30N 29°47' W 093°57'4 8.4
2018-Apr-12 00:00N 29°45' W 093°53'510.1
2018-Apr-11 23:30N 29°40' W 093°50'510.4
2018-Apr-11 23:00N 29°35' W 093°48'3 7.0
2018-Apr-11 22:30N 29°35' W 093°44'0 0.8
2018-Apr-11 22:00N 29°35' W 093°44'  
Track history (hours):
 
Tides and Currents Weather Stations Pressure Air Temp Water Temp Dewpoint Dewpoint Depression Visibility Wind Speed Wind Dir Waves Ship Positions

Overseas Houston

Owner: ASC Leasing I, Inc., Kennett Square, PA. More information available from US FCC via Universal Licensing System and Coast Guard Vessel Documentation Center.

Last reported at 2018-Apr-21 21:50 UTC. Time now 2018-Apr-25 05:11 UTC.
Position N 25°16' W 080°05'.

Type: Tanker. MMSI: 367109000.

Date/timePositionNaut miles runAvg speedWind from/ knotsBaromVisibWave heightAir tempDewpointWater temp
2018-Apr-21 21:50N 25°16' W 080°05'411.9
2018-Apr-21 21:30N 25°19' W 080°03'611.4
2018-Apr-21 21:00N 25°25' W 080°02'611.2
2018-Apr-21 20:30N 25°30' W 080°02'510.9
2018-Apr-21 20:00N 25°35' W 080°00'611.0
2018-Apr-21 19:30N 25°41' W 079°60'611.4
2018-Apr-21 19:00N 25°47' W 080°00'713.1
2018-Apr-21 18:30N 25°53' W 080°00'713.3
2018-Apr-21 18:00N 25°60' W 080°00'713.6
2018-Apr-21 17:30N 26°07' W 080°00'713.4
2018-Apr-21 17:00N 26°13' W 080°00'713.1
2018-Apr-21 16:30N 26°20' W 080°00'713.1
2018-Apr-21 15:59N 26°27' W 080°00'612.9
2018-Apr-21 15:29N 26°33' W 080°00'1112.9
2018-Apr-21 14:36N 26°44' W 079°56'312.4
2018-Apr-21 14:20N 26°47' W 079°55'411.9
2018-Apr-21 14:00N 26°51' W 079°55'611.2
2018-Apr-21 13:30N 26°57' W 079°55'510.7
2018-Apr-21 13:00N 27°02' W 079°55'  
2018-Apr-19 05:52N 28°19' W 080°29'0 0.0
2018-Apr-19 05:22N 28°19' W 080°29'0 0.0
2018-Apr-19 01:06N 28°19' W 080°29'0 0.0
2018-Apr-19 00:54N 28°19' W 080°29'0 0.0
2018-Apr-19 00:21N 28°19' W 080°29'118 2.6
2018-Apr-17 02:25N 26°27' W 079°47'1017.5
2018-Apr-17 01:51N 26°17' W 079°48'717.5
2018-Apr-17 01:28N 26°11' W 079°49'817.4
2018-Apr-17 01:00N 26°03' W 079°51'917.4
2018-Apr-17 00:30N 25°54' W 079°52'817.4
2018-Apr-17 00:00N 25°45' W 079°53'917.6
2018-Apr-16 23:30N 25°37' W 079°55'917.5
2018-Apr-16 23:00N 25°28' W 079°57'1117.0
2018-Apr-16 22:23N 25°18' W 079°60'  
2018-Apr-14 08:37N 29°18' W 093°39'210.8
2018-Apr-14 08:27N 29°20' W 093°39'510.5
2018-Apr-14 08:00N 29°24' W 093°40'3 6.3
2018-Apr-14 07:30N 29°28' W 093°40'510.2
2018-Apr-14 06:59N 29°32' W 093°43'511.4
2018-Apr-14 06:30N 29°36' W 093°48'611.0
2018-Apr-14 06:00N 29°41' W 093°50'5 9.6
2018-Apr-14 05:30N 29°45' W 093°53'4 8.7
2018-Apr-14 05:00N 29°48' W 093°57'4 8.4
2018-Apr-14 04:30N 29°52' W 093°56'4 8.7
2018-Apr-14 04:00N 29°55' W 093°53'4 7.4
2018-Apr-14 03:30N 29°59' W 093°52'4 7.5
2018-Apr-14 03:00N 29°59' W 093°56'2 4.8
2018-Apr-14 02:30N 30°01' W 093°58'2 4.6
2018-Apr-14 02:00N 30°01' W 094°01'1 3.0
2018-Apr-14 01:30N 30°02' W 094°02'0 0.0
2018-Apr-14 01:00N 30°02' W 094°02'0 0.0
2018-Apr-14 00:28N 30°02' W 094°02'0 0.0
2018-Apr-13 23:55N 30°02' W 094°02'0 0.0
2018-Apr-13 23:28N 30°02' W 094°02'0 0.0
2018-Apr-13 22:58N 30°02' W 094°02'0 0.0
2018-Apr-13 22:28N 30°02' W 094°02'0 0.0
2018-Apr-13 21:58N 30°02' W 094°02'0 0.0
2018-Apr-13 21:28N 30°02' W 094°02'0 0.0
2018-Apr-13 20:58N 30°02' W 094°02'0 0.0
2018-Apr-13 20:28N 30°02' W 094°02'0 0.0
2018-Apr-13 19:58N 30°02' W 094°02'0 0.0
2018-Apr-13 19:28N 30°02' W 094°02'0 0.0
2018-Apr-13 18:58N 30°02' W 094°02'0 0.0
2018-Apr-13 18:28N 30°02' W 094°02'0 0.0
2018-Apr-13 17:58N 30°02' W 094°02'0 0.0
2018-Apr-13 17:28N 30°02' W 094°02'0 0.0
2018-Apr-13 16:55N 30°02' W 094°02'0 0.0
2018-Apr-13 16:28N 30°02' W 094°02'0 0.0
2018-Apr-13 15:58N 30°02' W 094°02'0 0.0
2018-Apr-13 15:28N 30°02' W 094°02'0 0.0
2018-Apr-13 14:58N 30°02' W 094°02'0 0.0
2018-Apr-13 14:28N 30°02' W 094°02'0 0.0
2018-Apr-13 13:58N 30°02' W 094°02'0 0.0
2018-Apr-13 13:28N 30°02' W 094°02'0 0.0
2018-Apr-13 12:58N 30°02' W 094°02'0 0.0
2018-Apr-13 12:28N 30°02' W 094°02'0 0.0
2018-Apr-13 11:58N 30°02' W 094°02'0 0.0
2018-Apr-13 11:28N 30°02' W 094°02'0 0.0
2018-Apr-13 10:58N 30°02' W 094°02'0 0.0
2018-Apr-13 10:28N 30°02' W 094°02'0 0.0
2018-Apr-13 09:58N 30°02' W 094°02'0 0.0
2018-Apr-13 09:25N 30°02' W 094°02'0 0.0
2018-Apr-13 08:58N 30°02' W 094°02'0 0.0
2018-Apr-13 08:28N 30°02' W 094°02'0 0.0
2018-Apr-13 07:55N 30°02' W 094°02'0 0.0
2018-Apr-13 07:30N 30°02' W 094°02'0 0.0
2018-Apr-13 07:00N 30°02' W 094°02'0 0.0
2018-Apr-13 06:30N 30°02' W 094°02'0 0.0
2018-Apr-13 06:00N 30°02' W 094°02'0 0.0
2018-Apr-13 05:30N 30°02' W 094°02'0 0.0
2018-Apr-13 05:00N 30°02' W 094°02'0 0.0
2018-Apr-13 04:30N 30°02' W 094°02'0 0.0
2018-Apr-13 04:00N 30°02' W 094°02'0 0.0
2018-Apr-13 03:30N 30°02' W 094°02'0 0.0
2018-Apr-13 03:00N 30°02' W 094°02'0 0.0
2018-Apr-13 02:30N 30°02' W 094°02'0 0.0
2018-Apr-13 02:00N 30°02' W 094°02'0 0.0
2018-Apr-13 01:30N 30°02' W 094°02'0 0.0
2018-Apr-13 01:00N 30°02' W 094°02'0 0.0
2018-Apr-13 00:30N 30°02' W 094°02'0 0.0
2018-Apr-13 00:00N 30°02' W 094°02'0 0.0
2018-Apr-12 23:27N 30°02' W 094°02'0 0.0
2018-Apr-12 23:00N 30°02' W 094°02'0 0.0
2018-Apr-12 22:30N 30°02' W 094°02'0 0.0
2018-Apr-12 21:57N 30°02' W 094°02'0 0.0
2018-Apr-12 21:30N 30°02' W 094°02'0 0.0
2018-Apr-12 21:00N 30°02' W 094°02'0 0.0
2018-Apr-12 20:30N 30°02' W 094°02'0 0.0
2018-Apr-12 20:00N 30°02' W 094°02'0 0.0
2018-Apr-12 19:30N 30°02' W 094°02'0 0.0
2018-Apr-12 19:00N 30°02' W 094°02'0 0.0
2018-Apr-12 18:30N 30°02' W 094°02'0 0.0
2018-Apr-12 18:00N 30°02' W 094°02'0 0.0
2018-Apr-12 17:30N 30°02' W 094°02'0 0.0
2018-Apr-12 17:00N 30°02' W 094°02'0 0.0
2018-Apr-12 16:30N 30°02' W 094°02'0 0.0
2018-Apr-12 16:00N 30°02' W 094°02'0 0.0
2018-Apr-12 15:30N 30°02' W 094°02'0 0.0
2018-Apr-12 15:00N 30°02' W 094°02'0 0.0
2018-Apr-12 14:30N 30°02' W 094°02'0 0.0
2018-Apr-12 14:00N 30°02' W 094°02'0 0.0
2018-Apr-12 13:30N 30°02' W 094°02'0 0.0
2018-Apr-12 13:00N 30°02' W 094°02'0 0.0
2018-Apr-12 12:30N 30°02' W 094°02'0 0.0
2018-Apr-12 11:57N 30°02' W 094°02'0 0.0
2018-Apr-12 11:30N 30°02' W 094°02'0 0.0
2018-Apr-12 11:00N 30°02' W 094°02'0 0.0
2018-Apr-12 10:30N 30°02' W 094°02'0 0.0
2018-Apr-12 10:00N 30°02' W 094°02'0 0.0
2018-Apr-12 09:30N 30°02' W 094°02'0 0.0
2018-Apr-12 09:00N 30°02' W 094°02'0 0.0
2018-Apr-12 08:30N 30°02' W 094°02'0 0.0
2018-Apr-12 08:00N 30°02' W 094°02'0 0.0
2018-Apr-12 07:30N 30°02' W 094°02'0 0.0
2018-Apr-12 07:00N 30°02' W 094°02'0 0.0
2018-Apr-12 06:30N 30°02' W 094°02'0 0.0
2018-Apr-12 06:00N 30°02' W 094°02'0 0.0
2018-Apr-12 05:30N 30°02' W 094°02'0 0.0
2018-Apr-12 04:57N 30°02' W 094°02'0 0.0
2018-Apr-12 04:27N 30°02' W 094°02'0 0.7
2018-Apr-12 04:00N 30°02' W 094°02'2 3.6
2018-Apr-12 03:30N 30°01' W 094°00'3 5.2
2018-Apr-12 03:00N 30°01' W 093°57'4 7.0
2018-Apr-12 02:30N 29°59' W 093°54'3 5.8
2018-Apr-12 02:00N 29°57' W 093°52'4 7.7
2018-Apr-12 01:30N 29°54' W 093°54'4 7.2
2018-Apr-12 01:00N 29°51' W 093°57'4 7.6
2018-Apr-12 00:30N 29°47' W 093°57'4 8.4
2018-Apr-12 00:00N 29°45' W 093°53'510.1
2018-Apr-11 23:30N 29°40' W 093°50'510.4
2018-Apr-11 23:00N 29°35' W 093°48'3 7.0
2018-Apr-11 22:30N 29°35' W 093°44'0 0.8
2018-Apr-11 22:00N 29°35' W 093°44'  

Dump ship's entire track history